Time;durP1;ratioP1;P1;durP2;ratioP2;P2;SDS_P1;SDS_P2;PMS_P1;PMS_P2;Temp;Humidity;BMP_temperature;BMP_pressure;BME280_temperature;BME280_humidity;BME280_pressure;Samples;Min_cycle;Max_cycle;Signal;HPM_P1;HPM_P2
2022/03/05 00:01:06;;;;;;;1.42;1.42;;;0.30;99.90;;;;;;5070005;28;20204;-84
2022/03/05 00:03:34;;;;;;;0.93;0.80;;;0.20;99.90;;;;;;5070130;28;20209;-83
2022/03/05 00:06:03;;;;;;;0.30;0.20;;;0.20;99.90;;;;;;5075305;28;20219;-83
2022/03/05 00:08:30;;;;;;;0.30;0.10;;;0.20;99.90;;;;;;5070409;28;20804;-83
2022/03/05 00:10:56;;;;;;;1.30;0.90;;;0.20;99.90;;;;;;5067258;28;20208;-82
2022/03/05 00:13:23;;;;;;;0.30;0.20;;;0.20;99.90;;;;;;5069657;28;20203;-86
2022/03/05 00:15:51;;;;;;;0.80;0.80;;;0.20;99.90;;;;;;5062288;28;20289;-86
2022/03/05 00:18:18;;;;;;;4.32;1.13;;;0.10;99.90;;;;;;5066436;28;20862;-85
2022/03/05 00:20:46;;;;;;;6.18;0.52;;;0.20;99.90;;;;;;5068109;28;20330;-83
2022/03/05 00:23:16;;;;;;;2.15;0.65;;;0.20;99.90;;;;;;5063421;28;20343;-83
2022/03/05 00:25:44;;;;;;;0.40;0.30;;;0.20;99.90;;;;;;5065292;28;20205;-86
2022/03/05 00:28:11;;;;;;;2.67;1.38;;;0.20;99.90;;;;;;5070508;28;20257;-83
2022/03/05 00:30:38;;;;;;;0.30;0.10;;;0.20;99.90;;;;;;5067613;28;20194;-86
2022/03/05 00:33:05;;;;;;;0.40;0.30;;;0.20;99.90;;;;;;5064484;28;20253;-83
2022/03/05 00:35:33;;;;;;;1.48;1.38;;;0.20;99.90;;;;;;5069206;28;20281;-86
2022/03/05 00:38:00;;;;;;;0.30;0.15;;;0.20;99.90;;;;;;5064410;28;20213;-83
2022/03/05 00:40:29;;;;;;;2.63;1.13;;;0.10;99.90;;;;;;5064349;28;20674;-87
2022/03/05 00:42:56;;;;;;;1.45;1.30;;;0.10;99.90;;;;;;5067744;28;20261;-83
2022/03/05 00:45:23;;;;;;;0.30;0.10;;;0.10;99.90;;;;;;5064916;28;20260;-83
2022/03/05 00:47:50;;;;;;;5.97;0.68;;;0.00;99.90;;;;;;5069630;28;20288;-84
2022/03/05 00:50:17;;;;;;;0.30;0.20;;;0.00;99.90;;;;;;5068247;28;20201;-83
2022/03/05 00:52:44;;;;;;;1.50;0.65;;;0.00;99.90;;;;;;5064027;28;20529;-83
2022/03/05 00:55:11;;;;;;;0.40;0.38;;;0.00;99.90;;;;;;5069707;28;20203;-84
2022/03/05 00:57:40;;;;;;;0.30;0.20;;;0.00;99.90;;;;;;5065311;28;20203;-85
2022/03/05 01:00:10;;;;;;;0.45;0.45;;;0.00;99.90;;;;;;5068158;28;20204;-83
2022/03/05 01:02:37;;;;;;;0.30;0.10;;;0.00;99.90;;;;;;5064539;28;20295;-85
2022/03/05 01:05:05;;;;;;;1.25;0.68;;;0.00;99.90;;;;;;5074914;28;20204;-83
2022/03/05 01:07:32;;;;;;;0.90;0.90;;;0.00;99.90;;;;;;5068540;28;20221;-85
2022/03/05 01:09:59;;;;;;;8.57;1.65;;;0.00;99.90;;;;;;5064577;28;20209;-84
2022/03/05 01:12:26;;;;;;;0.40;0.30;;;0.00;99.90;;;;;;5066203;28;20197;-86
2022/03/05 01:14:54;;;;;;;0.30;0.20;;;0.10;99.90;;;;;;5066760;28;20454;-84
2022/03/05 01:17:21;;;;;;;0.40;0.40;;;0.00;99.90;;;;;;5067441;28;20490;-89
2022/03/05 01:19:49;;;;;;;0.40;0.40;;;0.00;99.90;;;;;;5062847;28;20201;-86
2022/03/05 01:22:16;;;;;;;0.63;0.52;;;0.10;99.90;;;;;;5058097;28;20821;-84
2022/03/05 01:24:43;;;;;;;0.30;0.20;;;0.10;99.90;;;;;;5067901;28;20200;-84
2022/03/05 01:27:10;;;;;;;0.30;0.10;;;0.00;99.90;;;;;;5063569;28;20267;-85
2022/03/05 01:29:37;;;;;;;0.30;0.10;;;0.00;99.90;;;;;;5063434;28;20278;-83
2022/03/05 01:32:06;;;;;;;0.47;0.40;;;-0.10;99.90;;;;;;5061695;28;20207;-84
2022/03/05 01:34:33;;;;;;;0.30;0.20;;;-0.10;99.90;;;;;;5065915;28;20205;-84
2022/03/05 01:37:00;;;;;;;1.17;1.07;;;-0.10;99.90;;;;;;5064206;28;20210;-84
2022/03/05 01:39:27;;;;;;;0.40;0.30;;;-0.10;99.90;;;;;;5065348;28;20446;-84
2022/03/05 01:41:55;;;;;;;0.30;0.20;;;-0.20;99.90;;;;;;5065949;28;20584;-84
2022/03/05 01:44:22;;;;;;;0.30;0.10;;;-0.20;99.90;;;;;;5064268;28;20214;-88
2022/03/05 01:46:49;;;;;;;0.30;0.10;;;-0.20;99.90;;;;;;5066324;28;20215;-84
2022/03/05 01:49:17;;;;;;;0.30;0.20;;;-0.20;99.90;;;;;;5063019;28;20204;-84
2022/03/05 01:51:45;;;;;;;0.40;0.40;;;-0.20;99.90;;;;;;5066751;28;20560;-87
2022/03/05 01:54:12;;;;;;;0.30;0.10;;;-0.20;99.90;;;;;;5066290;28;20703;-86
2022/03/05 01:56:41;;;;;;;0.85;0.85;;;-0.20;99.90;;;;;;5061570;28;20734;-84
2022/03/05 01:59:09;;;;;;;1.95;1.85;;;-0.20;99.90;;;;;;5071297;28;20206;-85
2022/03/05 02:01:36;;;;;;;0.30;0.10;;;-0.30;99.90;;;;;;5077658;28;20662;-84
2022/03/05 02:04:04;;;;;;;0.43;0.43;;;-0.20;99.90;;;;;;5072380;28;20257;-83
2022/03/05 02:06:32;;;;;;;0.30;0.20;;;-0.30;99.90;;;;;;5063624;28;20691;-83
2022/03/05 02:08:59;;;;;;;1.50;0.82;;;-0.20;99.90;;;;;;5065043;28;20254;-88
2022/03/05 02:11:27;;;;;;;1.03;0.93;;;-0.20;99.90;;;;;;5065173;28;20208;-85
2022/03/05 02:13:55;;;;;;;0.82;0.52;;;-0.20;99.90;;;;;;5064437;28;21242;-88
2022/03/05 02:16:23;;;;;;;0.30;0.20;;;-0.20;99.90;;;;;;5067684;28;20232;-84
2022/03/05 02:18:52;;;;;;;0.30;0.17;;;-0.20;99.90;;;;;;5059862;28;20201;-84
2022/03/05 02:21:23;;;;;;;0.40;0.40;;;-0.20;99.90;;;;;;5065711;28;20334;-83
2022/03/05 02:23:50;;;;;;;1.40;1.08;;;-0.20;99.90;;;;;;5066264;28;20281;-84
2022/03/05 02:26:17;;;;;;;1.67;1.38;;;-0.20;99.90;;;;;;5063727;28;20199;-84
2022/03/05 02:28:44;;;;;;;0.40;0.30;;;-0.20;99.90;;;;;;5068522;28;20675;-84
2022/03/05 02:31:11;;;;;;;0.30;0.20;;;-0.10;99.90;;;;;;5066352;28;20253;-84
2022/03/05 02:33:40;;;;;;;0.88;0.88;;;0.00;99.90;;;;;;5067264;28;20659;-85
2022/03/05 02:36:08;;;;;;;0.68;0.68;;;0.00;99.90;;;;;;5063284;28;20618;-87
2022/03/05 02:38:36;;;;;;;0.30;0.20;;;0.00;99.90;;;;;;5066785;28;20272;-86
2022/03/05 02:41:03;;;;;;;0.40;0.30;;;-0.20;99.90;;;;;;5063846;28;20230;-84
2022/03/05 02:43:30;;;;;;;5.38;1.25;;;-0.20;99.90;;;;;;5064062;28;20204;-84
2022/03/05 02:45:58;;;;;;;0.30;0.10;;;-0.20;99.90;;;;;;5061258;28;20784;-84
2022/03/05 02:48:25;;;;;;;0.30;0.10;;;-0.20;99.90;;;;;;5065441;28;20228;-85
2022/03/05 02:50:52;;;;;;;0.30;0.20;;;-0.10;99.90;;;;;;5067259;28;20212;-85
2022/03/05 02:53:19;;;;;;;0.60;0.60;;;-0.10;99.90;;;;;;5063423;28;20208;-83
2022/03/05 02:55:48;;;;;;;0.30;0.10;;;-0.10;99.90;;;;;;5057947;28;20237;-85
2022/03/05 02:58:15;;;;;;;0.80;0.55;;;-0.20;99.90;;;;;;5069025;28;20273;-83
2022/03/05 03:00:43;;;;;;;0.30;0.10;;;-0.20;99.90;;;;;;5079360;28;20204;-85
2022/03/05 03:03:10;;;;;;;0.50;0.50;;;-0.20;99.90;;;;;;5067445;28;20200;-84
2022/03/05 03:05:37;;;;;;;4.80;1.05;;;-0.10;99.90;;;;;;5064910;28;20317;-86
2022/03/05 03:08:05;;;;;;;0.65;0.60;;;0.00;99.90;;;;;;5071175;28;20220;-83
2022/03/05 03:10:32;;;;;;;0.40;0.30;;;0.10;99.90;;;;;;5068616;28;20550;-87
2022/03/05 03:13:01;;;;;;;0.30;0.10;;;0.00;99.90;;;;;;5069489;28;20213;-87
2022/03/05 03:15:28;;;;;;;0.30;0.17;;;0.00;99.90;;;;;;5065095;28;20199;-84
2022/03/05 03:17:55;;;;;;;0.30;0.10;;;0.10;99.90;;;;;;5070841;28;20210;-84
2022/03/05 03:20:24;;;;;;;1.95;1.85;;;0.10;99.90;;;;;;5067079;28;20262;-85
2022/03/05 03:22:52;;;;;;;0.30;0.20;;;-0.10;99.90;;;;;;5071248;28;20250;-86
2022/03/05 03:25:19;;;;;;;0.30;0.20;;;0.00;99.90;;;;;;5067678;28;20772;-84
2022/03/05 03:27:46;;;;;;;0.50;0.50;;;0.00;99.90;;;;;;5066476;28;20753;-84
2022/03/05 03:30:16;;;;;;;1.30;1.20;;;0.00;99.90;;;;;;5063482;28;20208;-83
2022/03/05 03:32:44;;;;;;;0.30;0.10;;;0.00;99.90;;;;;;5071252;28;20201;-83
2022/03/05 03:35:14;;;;;;;2.15;0.85;;;0.00;99.90;;;;;;5070567;28;20203;-84
2022/03/05 03:37:41;;;;;;;0.30;0.10;;;-0.10;99.90;;;;;;5067142;28;20230;-84
2022/03/05 03:40:11;;;;;;;0.60;0.55;;;-0.10;99.90;;;;;;5069929;28;20202;-86
2022/03/05 03:42:39;;;;;;;0.30;0.17;;;0.00;99.90;;;;;;5068301;28;20202;-84
2022/03/05 03:45:07;;;;;;;0.30;0.10;;;0.00;99.90;;;;;;5065173;28;20459;-83
2022/03/05 03:47:36;;;;;;;0.30;0.17;;;-0.10;99.90;;;;;;5064954;28;20284;-84
2022/03/05 03:50:04;;;;;;;0.30;0.10;;;-0.10;99.90;;;;;;5063990;28;20204;-84
2022/03/05 03:52:31;;;;;;;0.30;0.20;;;0.00;99.90;;;;;;5065866;28;20407;-86
2022/03/05 03:54:58;;;;;;;0.40;0.30;;;-0.10;99.90;;;;;;5069373;28;20199;-85
2022/03/05 03:57:25;;;;;;;0.30;0.20;;;-0.20;99.90;;;;;;5067223;28;20239;-84
2022/03/05 03:59:52;;;;;;;0.30;0.20;;;-0.30;99.90;;;;;;5075504;28;20203;-83
2022/03/05 04:02:20;;;;;;;0.30;0.20;;;-0.30;99.90;;;;;;5071310;28;20248;-84
2022/03/05 04:04:49;;;;;;;0.30;0.10;;;-0.40;99.90;;;;;;5068008;28;20211;-83
2022/03/05 04:10:00;;;;;;;0.30;0.10;;;-0.30;99.90;;;;;;5067907;28;20713;-82
2022/03/05 04:12:27;;;;;;;0.30;0.20;;;-0.20;99.90;;;;;;5069040;28;20211;-84
2022/03/05 04:14:55;;;;;;;0.30;0.10;;;-0.20;99.90;;;;;;5065999;28;20208;-83
2022/03/05 04:17:22;;;;;;;0.30;0.10;;;-0.30;99.90;;;;;;5067232;28;20235;-84
2022/03/05 04:19:50;;;;;;;0.30;0.10;;;-0.20;99.90;;;;;;5069991;28;20196;-85
2022/03/05 04:22:17;;;;;;;0.55;0.55;;;-0.20;99.90;;;;;;5065276;28;20257;-83
2022/03/05 04:24:44;;;;;;;0.30;0.20;;;-0.20;99.90;;;;;;5063375;28;20654;-83
2022/03/05 04:27:11;;;;;;;0.30;0.20;;;-0.20;99.90;;;;;;5067493;28;20705;-82
2022/03/05 04:29:38;;;;;;;0.35;0.17;;;-0.20;99.90;;;;;;5068345;28;20234;-83
2022/03/05 04:32:06;;;;;;;0.40;0.30;;;-0.30;99.90;;;;;;5059779;28;20604;-85
2022/03/05 04:34:33;;;;;;;0.30;0.20;;;-0.40;99.90;;;;;;5064177;28;20196;-83
2022/03/05 04:37:02;;;;;;;0.82;0.60;;;-0.50;99.90;;;;;;5058864;28;20650;-84
2022/03/05 04:39:29;;;;;;;0.40;0.38;;;-0.60;99.90;;;;;;5065738;28;20758;-85
2022/03/05 04:41:56;;;;;;;0.30;0.20;;;-0.80;99.90;;;;;;5067672;28;20244;-86
2022/03/05 04:44:23;;;;;;;0.47;0.47;;;-1.00;99.90;;;;;;5067794;28;20257;-86
2022/03/05 04:46:50;;;;;;;1.95;0.47;;;-1.00;99.90;;;;;;5069016;28;20201;-83
2022/03/05 04:49:17;;;;;;;0.30;0.10;;;-1.10;99.90;;;;;;5063246;28;20233;-83
2022/03/05 04:51:44;;;;;;;0.93;0.93;;;-1.20;99.90;;;;;;5067867;28;20200;-83
2022/03/05 04:54:12;;;;;;;0.30;0.10;;;-1.30;99.90;;;;;;5066230;28;20203;-83
2022/03/05 04:56:40;;;;;;;0.30;0.10;;;-1.50;99.90;;;;;;5073956;28;20200;-82
2022/03/05 04:59:07;;;;;;;0.30;0.10;;;-1.50;99.90;;;;;;5067600;28;20527;-83
2022/03/05 05:01:34;;;;;;;0.40;0.32;;;-1.60;99.90;;;;;;5070163;28;20271;-83
2022/03/05 05:04:01;;;;;;;1.95;0.77;;;-1.70;99.90;;;;;;5061480;28;20199;-85
2022/03/05 05:06:28;;;;;;;0.30;0.20;;;-1.60;99.90;;;;;;5066928;28;20559;-86
2022/03/05 05:08:55;;;;;;;1.02;1.00;;;-1.70;99.90;;;;;;5063339;28;20883;-84
2022/03/05 05:11:23;;;;;;;0.30;0.20;;;-1.80;99.90;;;;;;5063655;28;20255;-86
2022/03/05 05:13:50;;;;;;;0.30;0.20;;;-1.90;99.90;;;;;;5067360;28;20202;-85
2022/03/05 05:16:17;;;;;;;0.40;0.30;;;-1.90;99.90;;;;;;5067206;28;20747;-85
2022/03/05 05:19:24;;;;;;;0.30;0.20;;;-1.90;99.90;;;;;;5060871;28;20205;-84
2022/03/05 05:21:31;;;;;;;0.30;0.10;;;-1.90;99.90;;;;;;5067544;28;20247;-87
2022/03/05 05:23:58;;;;;;;0.47;0.43;;;-1.80;99.90;;;;;;5065984;28;20197;-87
2022/03/05 05:26:27;;;;;;;0.55;0.55;;;-1.70;99.90;;;;;;5064515;28;20239;-83
2022/03/05 05:28:54;;;;;;;0.52;0.43;;;-1.70;99.90;;;;;;5063678;28;20283;-83
2022/03/05 05:31:21;;;;;;;0.30;0.10;;;-1.70;99.90;;;;;;5066819;28;20203;-87
2022/03/05 05:33:49;;;;;;;0.30;0.15;;;-1.70;99.90;;;;;;5064716;28;20207;-85
2022/03/05 05:36:16;;;;;;;0.30;0.10;;;-1.60;99.90;;;;;;5070581;28;20199;-83
2022/03/05 05:38:43;;;;;;;1.40;1.30;;;-1.60;99.90;;;;;;5067260;28;20656;-84
2022/03/05 05:41:12;;;;;;;0.40;0.40;;;-1.60;99.90;;;;;;5064857;28;20637;-83
2022/03/05 05:43:40;;;;;;;0.30;0.10;;;-1.50;99.90;;;;;;5049574;28;20210;-86
2022/03/05 05:46:07;;;;;;;0.30;0.20;;;-1.40;99.90;;;;;;5061926;28;20206;-88
2022/03/05 05:48:34;;;;;;;0.30;0.10;;;-1.30;99.90;;;;;;5062407;28;20215;-85
2022/03/05 05:51:01;;;;;;;0.30;0.10;;;-1.20;99.90;;;;;;5066733;28;20206;-87
2022/03/05 05:53:28;;;;;;;0.30;0.10;;;-1.00;99.90;;;;;;5070727;28;20248;-83
2022/03/05 05:55:55;;;;;;;0.30;0.20;;;-0.90;99.90;;;;;;5074590;28;20198;-85
2022/03/05 05:58:22;;;;;;;0.30;0.20;;;-0.80;99.90;;;;;;5065721;28;20197;-84
2022/03/05 06:00:51;;;;;;;0.30;0.10;;;-0.70;99.90;;;;;;5067037;28;20202;-82
2022/03/05 06:03:19;;;;;;;0.30;0.10;;;-0.70;99.90;;;;;;5068313;28;20205;-83
2022/03/05 06:05:46;;;;;;;0.30;0.20;;;-0.60;99.90;;;;;;5064238;28;20734;-81
2022/03/05 06:08:13;;;;;;;0.30;0.10;;;-0.60;99.90;;;;;;5064988;28;20248;-82
2022/03/05 06:10:39;;;;;;;0.30;0.10;;;-0.60;99.90;;;;;;5063812;28;20259;-82
2022/03/05 06:13:06;;;;;;;1.95;1.85;;;-0.60;99.90;;;;;;5064868;28;20664;-84
2022/03/05 06:15:33;;;;;;;1.13;1.02;;;-0.50;99.90;;;;;;5063921;28;20777;-83
2022/03/05 06:18:02;;;;;;;0.30;0.20;;;-0.50;99.90;;;;;;5065417;28;20700;-83
2022/03/05 06:20:29;;;;;;;2.15;2.05;;;-0.60;99.90;;;;;;5063486;28;20205;-83
2022/03/05 06:22:56;;;;;;;0.30;0.10;;;-0.60;99.90;;;;;;5062486;28;20198;-84
2022/03/05 06:25:23;;;;;;;3.70;0.85;;;-0.60;99.90;;;;;;5065750;28;20254;-87
2022/03/05 06:27:50;;;;;;;0.30;0.10;;;-0.50;99.90;;;;;;5068655;28;20201;-83
2022/03/05 06:30:17;;;;;;;0.30;0.10;;;-0.50;99.90;;;;;;5067018;28;20783;-82
2022/03/05 06:32:44;;;;;;;0.45;0.38;;;-0.60;99.90;;;;;;5069409;28;20209;-84
2022/03/05 06:35:13;;;;;;;0.30;0.10;;;-0.50;99.90;;;;;;5070911;28;20202;-86
2022/03/05 06:37:40;;;;;;;0.30;0.10;;;-0.40;99.90;;;;;;5072538;28;20189;-83
2022/03/05 06:40:10;;;;;;;0.40;0.40;;;-0.40;99.90;;;;;;5072295;28;20204;-85
2022/03/05 06:42:37;;;;;;;0.30;0.20;;;-0.30;99.90;;;;;;5070297;28;20208;-84
2022/03/05 06:45:05;;;;;;;2.28;0.63;;;-0.10;99.90;;;;;;5072610;28;20834;-82
2022/03/05 06:47:32;;;;;;;0.30;0.10;;;-0.10;99.90;;;;;;5072127;28;20198;-82
2022/03/05 06:49:59;;;;;;;0.30;0.20;;;-0.10;99.90;;;;;;5072149;28;20273;-84
2022/03/05 06:52:27;;;;;;;0.30;0.20;;;-0.10;99.90;;;;;;5054075;28;20219;-82
2022/03/05 06:54:55;;;;;;;0.40;0.40;;;-0.10;99.90;;;;;;5074541;28;20202;-82
2022/03/05 06:57:22;;;;;;;0.30;0.20;;;-0.10;99.90;;;;;;5082090;28;20236;-82
2022/03/05 06:59:49;;;;;;;0.30;0.10;;;-0.10;99.90;;;;;;5073285;28;20210;-85
2022/03/05 07:02:16;;;;;;;0.30;0.20;;;-0.10;99.90;;;;;;5056272;28;20215;-88
2022/03/05 07:04:43;;;;;;;0.35;0.25;;;-0.10;99.90;;;;;;5059983;28;20253;-85
2022/03/05 07:07:10;;;;;;;0.40;0.30;;;0.00;99.90;;;;;;5063839;28;20206;-88
2022/03/05 07:09:38;;;;;;;1.85;0.52;;;0.00;99.90;;;;;;5077655;28;20221;-84
2022/03/05 07:12:06;;;;;;;0.30;0.20;;;0.10;99.90;;;;;;5068545;28;20680;-86
2022/03/05 07:14:33;;;;;;;0.75;0.52;;;0.20;99.90;;;;;;5069387;28;20194;-83
2022/03/05 07:17:00;;;;;;;0.30;0.17;;;0.30;99.90;;;;;;5065727;28;20246;-86
2022/03/05 07:19:27;;;;;;;0.40;0.38;;;0.30;99.90;;;;;;5065361;28;20200;-82
2022/03/05 07:21:54;;;;;;;2.55;0.60;;;0.30;99.90;;;;;;5070741;28;20195;-82
2022/03/05 07:24:22;;;;;;;0.30;0.17;;;0.30;99.90;;;;;;5071049;28;20574;-82
2022/03/05 07:26:51;;;;;;;1.08;1.05;;;0.40;99.90;;;;;;5068456;28;20200;-85
2022/03/05 07:29:18;;;;;;;1.25;0.95;;;0.40;99.90;;;;;;5068476;28;20219;-87
2022/03/05 07:31:45;;;;;;;0.30;0.20;;;0.40;99.90;;;;;;5063952;28;20215;-85
2022/03/05 07:34:12;;;;;;;0.45;0.20;;;0.30;99.90;;;;;;5071150;28;20245;-85
2022/03/05 07:36:39;;;;;;;0.30;0.10;;;0.40;99.90;;;;;;5071075;28;20233;-84
2022/03/05 07:39:07;;;;;;;0.30;0.20;;;0.50;99.90;;;;;;5066212;28;20206;-85
2022/03/05 07:41:34;;;;;;;0.70;0.65;;;0.60;99.90;;;;;;5069956;28;20214;-85
2022/03/05 07:44:03;;;;;;;0.30;0.20;;;0.70;99.90;;;;;;5070222;28;20234;-84
2022/03/05 07:46:30;;;;;;;0.30;0.20;;;0.60;99.90;;;;;;5070054;28;20203;-85
2022/03/05 07:48:57;;;;;;;0.30;0.20;;;0.70;99.90;;;;;;5052252;28;20262;-87
2022/03/05 07:51:24;;;;;;;0.30;0.10;;;0.80;99.90;;;;;;5066957;28;20210;-85
2022/03/05 07:53:51;;;;;;;0.30;0.30;;;0.70;99.90;;;;;;5072154;28;20203;-86
2022/03/05 07:56:19;;;;;;;0.75;0.75;;;0.70;99.90;;;;;;5054601;28;20276;-82
2022/03/05 07:58:46;;;;;;;0.30;0.10;;;0.70;99.90;;;;;;5064367;28;20268;-89
2022/03/05 08:01:14;;;;;;;0.30;0.10;;;0.70;99.90;;;;;;5067715;28;20213;-85
2022/03/05 08:03:41;;;;;;;0.30;0.20;;;0.80;99.90;;;;;;5064518;28;20197;-85
2022/03/05 08:06:08;;;;;;;0.40;0.35;;;0.90;99.90;;;;;;5065590;28;20208;-84
2022/03/05 08:08:35;;;;;;;0.30;0.10;;;0.90;99.90;;;;;;5062204;28;20229;-87
2022/03/05 08:11:04;;;;;;;0.30;0.10;;;0.80;99.90;;;;;;5060689;28;20203;-86
2022/03/05 08:13:31;;;;;;;0.30;0.20;;;0.80;99.90;;;;;;5066469;28;20661;-87
2022/03/05 08:15:58;;;;;;;0.30;0.10;;;0.80;99.90;;;;;;5058982;28;20270;-88
2022/03/05 08:18:26;;;;;;;0.30;0.20;;;0.80;99.90;;;;;;5051137;28;20260;-84
2022/03/05 08:20:53;;;;;;;0.30;0.20;;;0.70;99.90;;;;;;5063217;28;20208;-85
2022/03/05 08:23:20;;;;;;;0.30;0.10;;;0.70;99.90;;;;;;5068202;28;20203;-88
2022/03/05 08:25:47;;;;;;;0.30;0.20;;;0.80;99.90;;;;;;5070494;28;20229;-87
2022/03/05 08:28:17;;;;;;;0.30;0.20;;;0.90;99.90;;;;;;5072158;28;20227;-87
2022/03/05 08:30:44;;;;;;;2.17;0.82;;;1.00;99.90;;;;;;5067495;28;20237;-86
2022/03/05 08:33:11;;;;;;;0.30;0.20;;;1.10;99.90;;;;;;5069296;28;20265;-85
2022/03/05 08:35:39;;;;;;;0.30;0.10;;;1.10;99.90;;;;;;5069841;28;20198;-84
2022/03/05 08:38:06;;;;;;;0.30;0.20;;;1.10;99.90;;;;;;5067947;28;20197;-85
2022/03/05 08:40:33;;;;;;;1.67;1.58;;;1.20;99.90;;;;;;5068984;28;20270;-88
2022/03/05 08:43:00;;;;;;;7.43;1.10;;;1.30;99.90;;;;;;5069988;28;20207;-88
2022/03/05 08:45:27;;;;;;;0.30;0.20;;;1.40;99.90;;;;;;5065633;28;20323;-87
2022/03/05 08:47:54;;;;;;;0.30;0.10;;;1.50;99.90;;;;;;5066502;28;20312;-84
2022/03/05 08:50:21;;;;;;;0.30;0.20;;;1.70;99.90;;;;;;5058280;28;20225;-83
2022/03/05 08:52:50;;;;;;;0.47;0.40;;;1.90;99.90;;;;;;5060268;28;20733;-82
2022/03/05 08:55:17;;;;;;;0.82;0.50;;;1.90;99.90;;;;;;5049545;28;20459;-82
2022/03/05 08:57:45;;;;;;;0.32;0.20;;;2.00;99.90;;;;;;5067571;28;20202;-83
2022/03/05 09:00:14;;;;;;;2.30;0.55;;;2.00;99.90;;;;;;5062501;28;20640;-83
2022/03/05 09:02:42;;;;;;;0.30;0.10;;;2.10;99.90;;;;;;5061335;28;20284;-85
2022/03/05 09:05:13;;;;;;;0.30;0.17;;;2.50;99.90;;;;;;5062614;28;20210;-80
2022/03/05 09:07:40;;;;;;;0.30;0.20;;;2.50;99.90;;;;;;5065530;28;20489;-90
2022/03/05 09:10:10;;;;;;;0.30;0.10;;;2.50;99.90;;;;;;5061919;28;20494;-83
2022/03/05 09:12:37;;;;;;;1.10;1.05;;;2.40;99.90;;;;;;5066843;28;20469;-84
2022/03/05 09:15:05;;;;;;;0.30;0.20;;;2.40;99.90;;;;;;5059884;28;20217;-86
2022/03/05 09:17:32;;;;;;;0.90;0.83;;;2.70;99.90;;;;;;5062219;28;20719;-83
2022/03/05 09:19:59;;;;;;;1.37;0.57;;;2.70;99.90;;;;;;5063925;28;20679;-82
2022/03/05 09:22:26;;;;;;;0.55;0.55;;;2.90;99.90;;;;;;5064923;28;20454;-85
2022/03/05 09:24:53;;;;;;;2.05;1.95;;;3.00;99.90;;;;;;5066368;28;20196;-85
2022/03/05 09:27:22;;;;;;;0.30;0.10;;;3.10;99.90;;;;;;5061035;28;20563;-85
2022/03/05 09:29:48;;;;;;;0.40;0.40;;;3.30;99.90;;;;;;5060713;28;20320;-85
2022/03/05 09:32:15;;;;;;;1.40;1.30;;;3.40;99.90;;;;;;5059204;28;20467;-85
2022/03/05 09:34:42;;;;;;;0.30;0.20;;;3.40;99.90;;;;;;5066759;28;20443;-85
2022/03/05 09:37:09;;;;;;;2.20;0.50;;;3.30;99.90;;;;;;5065066;28;20517;-84
2022/03/05 09:39:37;;;;;;;0.83;0.83;;;3.50;99.90;;;;;;5067001;28;20508;-85
2022/03/05 09:42:05;;;;;;;0.30;0.10;;;3.60;99.90;;;;;;5062128;28;20469;-84
2022/03/05 09:44:34;;;;;;;0.30;0.10;;;3.80;99.90;;;;;;5066360;28;20463;-85
2022/03/05 09:47:02;;;;;;;1.63;0.40;;;4.10;99.90;;;;;;5064785;28;20452;-84
2022/03/05 09:49:30;;;;;;;1.27;1.27;;;3.80;99.40;;;;;;5067246;28;20495;-84
2022/03/05 09:51:59;;;;;;;0.30;0.20;;;3.70;99.50;;;;;;5059711;28;20544;-85
2022/03/05 09:54:28;;;;;;;0.37;0.23;;;3.70;99.90;;;;;;5066707;28;20531;-84
2022/03/05 09:56:55;;;;;;;1.47;0.63;;;3.80;99.60;;;;;;5066145;28;20459;-86
2022/03/05 09:59:22;;;;;;;0.30;0.10;;;3.60;99.50;;;;;;5063559;28;20479;-84
2022/03/05 10:01:52;;;;;;;0.40;0.30;;;3.30;99.20;;;;;;5067566;28;20458;-85
2022/03/05 10:04:19;;;;;;;0.40;0.30;;;3.40;99.70;;;;;;5068423;28;20472;-87
2022/03/05 10:06:47;;;;;;;0.30;0.10;;;3.50;99.90;;;;;;5069999;28;20448;-84
2022/03/05 10:09:22;;;;;;;0.30;0.10;;;3.80;99.90;;;;;;5067793;28;21075;-84
2022/03/05 10:11:49;;;;;;;4.00;0.60;;;4.00;99.60;;;;;;5071262;28;20443;-86
2022/03/05 10:14:16;;;;;;;0.33;0.20;;;4.30;98.40;;;;;;5058393;28;20862;-84
2022/03/05 10:16:43;;;;;;;0.50;0.20;;;4.30;98.30;;;;;;5059832;28;20503;-84
2022/03/05 10:19:18;;;;;;;0.30;0.10;;;4.30;97.90;;;;;;5057650;28;21035;-85
2022/03/05 10:21:57;;;;;;;0.93;0.93;;;4.30;98.00;;;;;;5058176;28;20456;-85
2022/03/05 10:24:31;;;;;;;14.47;2.43;;;4.10;98.20;;;;;;5069971;28;20484;-85
2022/03/05 10:26:59;;;;;;;0.30;0.10;;;4.00;99.00;;;;;;5065373;28;20459;-86
2022/03/05 10:29:27;;;;;;;0.30;0.10;;;4.40;98.60;;;;;;5069434;28;20487;-84
2022/03/05 10:31:59;;;;;;;0.50;0.50;;;4.20;97.20;;;;;;5065108;28;20564;-86
2022/03/05 10:34:27;;;;;;;0.67;0.50;;;4.30;98.30;;;;;;5060761;28;20461;-84
2022/03/05 10:37:02;;;;;;;2.50;2.00;;;4.50;98.00;;;;;;5071406;28;20448;-84
2022/03/05 10:39:29;;;;;;;1.20;1.20;;;4.90;97.20;;;;;;5068930;28;20470;-85
2022/03/05 10:41:56;;;;;;;0.30;0.10;;;5.00;96.40;;;;;;5069806;28;20513;-86
2022/03/05 10:44:24;;;;;;;0.40;0.30;;;4.60;97.20;;;;;;5072884;28;21005;-85
2022/03/05 10:46:57;;;;;;;0.50;0.30;;;4.90;96.60;;;;;;5076331;28;20824;-84
2022/03/05 10:49:25;;;;;;;0.97;0.37;;;5.20;96.20;;;;;;5072414;28;20977;-85
2022/03/05 10:52:05;;;;;;;0.77;0.30;;;5.30;95.50;;;;;;5065643;28;20465;-85
2022/03/05 10:54:39;;;;;;;0.63;0.63;;;5.20;95.30;;;;;;5054802;28;20445;-85
2022/03/05 10:57:11;;;;;;;0.30;0.10;;;5.40;94.90;;;;;;5057882;28;20464;-87
2022/03/05 10:59:40;;;;;;;0.40;0.40;;;5.60;94.30;;;;;;5061323;28;20517;-84
2022/03/05 11:02:07;;;;;;;0.30;0.20;;;5.60;94.30;;;;;;5066336;28;20454;-85
2022/03/05 11:04:36;;;;;;;0.30;0.20;;;5.70;93.60;;;;;;5071698;28;20451;-84
2022/03/05 11:07:05;;;;;;;0.30;0.20;;;5.70;92.70;;;;;;5057626;28;20465;-84
2022/03/05 11:09:33;;;;;;;1.17;0.50;;;6.00;90.60;;;;;;5058029;28;20480;-86
2022/03/05 11:12:01;;;;;;;0.90;0.90;;;6.20;90.10;;;;;;5054877;28;20484;-85
2022/03/05 11:14:28;;;;;;;0.30;0.10;;;6.50;89.90;;;;;;5065826;28;20878;-84
2022/03/05 11:16:56;;;;;;;0.50;0.50;;;6.30;90.20;;;;;;5068129;28;20480;-84
2022/03/05 11:19:25;;;;;;;0.40;0.30;;;6.20;91.20;;;;;;5058557;28;20460;-85
2022/03/05 11:21:52;;;;;;;0.30;0.10;;;6.60;89.60;;;;;;5061029;28;20510;-85
2022/03/05 11:24:22;;;;;;;1.53;0.30;;;6.20;87.30;;;;;;5071492;28;20484;-86
2022/03/05 11:26:50;;;;;;;1.23;0.90;;;5.60;87.80;;;;;;5067943;28;20520;-85
2022/03/05 11:29:19;;;;;;;0.30;0.20;;;5.20;90.80;;;;;;5059749;28;20448;-85
2022/03/05 11:31:47;;;;;;;0.30;0.10;;;4.90;91.30;;;;;;5050717;28;20472;-85
2022/03/05 11:34:18;;;;;;;0.40;0.20;;;4.80;91.60;;;;;;5064547;28;20448;-84
2022/03/05 11:36:46;;;;;;;1.17;0.43;;;4.70;91.20;;;;;;5064356;28;20452;-86
2022/03/05 11:39:16;;;;;;;0.30;0.20;;;4.40;91.30;;;;;;5070637;28;20451;-84
2022/03/05 11:41:57;;;;;;;0.30;0.20;;;4.50;91.30;;;;;;5059719;28;20899;-83
2022/03/05 11:44:28;;;;;;;0.30;0.10;;;4.30;92.20;;;;;;5075553;28;20476;-84
2022/03/05 11:47:23;;;;;;;2.97;0.47;;;4.00;92.20;;;;;;5057812;28;20459;-85
2022/03/05 11:50:17;;;;;;;0.30;0.20;;;3.80;93.30;;;;;;5069448;28;20550;-85
2022/03/05 11:53:05;;;;;;;5.30;2.10;;;3.80;93.00;;;;;;5057489;28;20482;-84
2022/03/05 11:55:35;;;;;;;4.57;0.77;;;3.80;93.70;;;;;;5054798;28;20477;-84
2022/03/05 11:58:37;;;;;;;0.33;0.20;;;4.00;93.80;;;;;;5059305;28;20475;-84
2022/03/05 12:01:32;;;;;;;0.30;0.10;;;3.80;93.20;;;;;;5026661;28;20468;-85
2022/03/05 12:04:03;;;;;;;0.30;0.10;;;3.80;92.90;;;;;;5021961;28;20468;-84
2022/03/05 12:06:43;;;;;;;0.30;0.10;;;3.80;92.90;;;;;;5056949;28;20452;-84
2022/03/05 12:09:33;;;;;;;2.63;0.47;;;3.80;93.20;;;;;;5068013;28;20488;-84
2022/03/05 12:12:00;;;;;;;0.30;0.10;;;4.00;93.30;;;;;;5064246;28;20503;-84
2022/03/05 12:15:01;;;;;;;1.13;0.67;;;3.90;92.90;;;;;;5071096;28;20451;-85
2022/03/05 12:17:33;;;;;;;0.30;0.10;;;3.90;93.50;;;;;;5069909;28;20564;-84
2022/03/05 12:20:00;;;;;;;0.30;0.20;;;3.90;94.70;;;;;;5063084;28;20456;-84
2022/03/05 12:22:27;;;;;;;0.30;0.10;;;4.10;94.80;;;;;;5056305;28;20476;-84
2022/03/05 12:24:54;;;;;;;0.40;0.40;;;4.00;94.10;;;;;;5068132;28;20497;-85
2022/03/05 12:27:24;;;;;;;0.30;0.20;;;4.10;94.10;;;;;;5064294;28;20541;-84
2022/03/05 12:29:52;;;;;;;0.80;0.63;;;3.90;94.00;;;;;;5068769;28;20570;-86
2022/03/05 12:32:21;;;;;;;0.30;0.10;;;3.70;93.70;;;;;;5069898;28;20452;-85
2022/03/05 12:34:49;;;;;;;0.40;0.20;;;3.70;94.30;;;;;;5062766;28;20601;-84
2022/03/05 12:37:18;;;;;;;0.30;0.10;;;4.00;95.40;;;;;;5055534;28;20469;-84
2022/03/05 12:39:46;;;;;;;0.30;0.10;;;3.90;94.20;;;;;;5070118;28;20450;-84
2022/03/05 12:42:13;;;;;;;0.30;0.20;;;3.70;94.20;;;;;;5070880;28;20468;-84
2022/03/05 12:44:41;;;;;;;0.30;0.20;;;3.50;93.80;;;;;;5071574;28;20509;-85
2022/03/05 12:47:08;;;;;;;0.30;0.10;;;3.50;94.30;;;;;;5065862;28;20568;-84
2022/03/05 12:49:35;;;;;;;0.30;0.10;;;3.60;94.50;;;;;;5073503;28;20479;-83
2022/03/05 12:52:06;;;;;;;0.40;0.20;;;3.70;94.10;;;;;;5064924;28;20468;-84
2022/03/05 12:54:34;;;;;;;2.30;0.77;;;3.80;92.90;;;;;;5064839;28;20954;-84
2022/03/05 12:57:01;;;;;;;0.30;0.10;;;3.90;93.90;;;;;;5070276;28;20513;-84
2022/03/05 12:59:28;;;;;;;0.30;0.20;;;3.90;93.40;;;;;;5069146;28;20539;-84
2022/03/05 13:02:04;;;;;;;0.40;0.40;;;4.00;93.00;;;;;;5074865;28;20452;-85